This is the latest recevied weather packets stored in our database for station/object VE3GIF. If no packets are shown the sender has not sent any weather packets the latest 1 day(s).
| Time | Temp. | Humidity | Pressure | Rain* | Wind** | Luminosity | Snow |
|---|---|---|---|---|---|---|---|
| 1778014023 | 10.56° C | 79% | 1006.3 hPa | 0 mm | 1.34 m/s, 329° | - | - |
| 1778013723 | 10.56° C | 79% | 1006.3 hPa | 0 mm | 1.34 m/s, 341° | - | - |
| 1778013122 | 10.56° C | 77% | 1005.9 hPa | 0 mm | 0.89 m/s, 325° | - | - |
| 1778012822 | 10.56° C | 76% | 1005.9 hPa | 0 mm | 2.24 m/s, 302° | - | - |
| 1778012521 | 10.56° C | 75% | 1005.8 hPa | 0 mm | 1.79 m/s, 336° | - | - |
| 1778012221 | 10.56° C | 75% | 1005.8 hPa | 0 mm | 0.89 m/s, 355° | - | - |
| 1778011927 | 11.11° C | 74% | 1006 hPa | 0 mm | 0.89 m/s, 350° | - | - |
| 1778011621 | 11.11° C | 73% | 1005.9 hPa | 0 mm | 1.79 m/s, 325° | - | - |
| 1778011320 | 11.67° C | 70% | 1006.1 hPa | 0 mm | 0.89 m/s, 332° | - | - |
| 1778011020 | 12.22° C | 67% | 1005.9 hPa | 0 mm | 0.45 m/s, 281° | - | - |
| 1778010720 | 12.78° C | 63% | 1005.7 hPa | 0 mm | 1.79 m/s, 346° | - | - |
| 1778010420 | 13.33° C | 59% | 1005.4 hPa | 0 mm | 3.58 m/s, 276° | - | - |
| 1778009819 | 15° C | 56% | 1005.1 hPa | 0 mm | 0.89 m/s, 339° | - | - |
| 1778009519 | 15° C | 54% | 1005 hPa | 0 mm | 0.89 m/s, 239° | - | - |
| 1778008918 | 15.56° C | 52% | 1004.6 hPa | 0 mm | 2.68 m/s, 278° | - | - |
| 1778008618 | 15.56° C | 51% | 1004.5 hPa | 0 mm | 1.79 m/s, 244° | - | - |
| 1778008017 | 16.11° C | 54% | 1004.5 hPa | 0 mm | 1.34 m/s, 337° | - | - |
| 1778007717 | 15.56° C | 55% | 1004.3 hPa | 0 mm | 0.89 m/s, 270° | - | - |
| 1778007417 | 15.56° C | 55% | 1004.4 hPa | 0 mm | 1.34 m/s, 275° | - | - |
| 1778007116 | 15.56° C | 55% | 1004.3 hPa | 0 mm | 1.79 m/s, 289° | - | - |
| 1778006816 | 15.56° C | 55% | 1004.4 hPa | 0 mm | 2.68 m/s, 263° | - | - |
| 1778006516 | 15.56° C | 56% | 1004.3 hPa | 0 mm | 3.58 m/s, 290° | - | - |
| 1778006216 | 16.11° C | 55% | 1004.1 hPa | 0 mm | 2.68 m/s, 313° | - | - |
| 1778005915 | 16.67° C | 53% | 1004.1 hPa | 0 mm | 1.79 m/s, 290° | - | - |
| 1778005315 | 16.67° C | 52% | 1003.9 hPa | 0 mm | 3.58 m/s, 198° | - | - |
* Rain latest hour (hover to see other rain measurements)
** Current wind speed in m/s (hover to see current wind gust speed)